Flight Track Log - Related Links

Times and Time Zones

All times are in EDT time to prevent confusion due to time zone crossing. See the N529LB flight status page for this flight to view local times or setup timezone preferences in your user account.

Time Position Orientation Groundspeed Altitude Reporting Facility
EDT Latitude Longitude Course Direction KTS MPH feet Rate Location/Type
Sun 03:53:45 PM 40.6000 -74.7500 21° North 139 160 2,100  Level New York TRACON
Sun 03:54:44 PM 40.6000 -74.7167 90° East 143 165 3,000 857 Climbing New York TRACON
Sun 03:55:44 PM 40.6167 -74.6667 66° East 141 162 3,800 496 Climbing New York TRACON
Sun 03:56:45 PM 40.6333 -74.6167 66° East 168 193 4,000 550 Climbing New York TRACON
Sun 03:57:44 PM 40.6500 -74.5500 72° East 159 183 4,900 908 Climbing New York TRACON
Sun 03:58:44 PM 40.6667 -74.5000 66° East 140 161 5,800 893 Climbing New York TRACON
Sun 03:59:00 PM 40.8683 -74.5909 21° North  Level FlightAware Approximate
Sun 03:59:45 PM 40.7000 -74.4833 21° North 135 155 6,700  Level New York TRACON
Sun 04:00:45 PM 40.7333 -74.4500 37° Northeast 133 153 7,500 800 Climbing New York TRACON
Sun 04:01:45 PM 40.7667 -74.4500 360° North 123 142 8,300 700 Climbing New York TRACON
Sun 04:02:45 PM 40.8000 -74.4500 360° North 120 138 8,900 336 Climbing New York TRACON
Sun 04:03:50 PM 40.8333 -74.4500 360° North 158 182 9,000 50 Climbing New York TRACON
Sun 04:04:45 PM 40.8833 -74.4500 360° North 162 186 9,000  Level New York TRACON
Sun 04:05:50 PM 40.9333 -74.4667 346° North 156 180 9,000  Level New York TRACON
Sun 04:06:50 PM 40.9667 -74.4667 360° North 158 182 9,000  Level New York TRACON
Sun 04:07:50 PM 41.0167 -74.4833 346° North 157 181 9,000 50 Level New York TRACON
Sun 04:09:00 PM 41.0672 -74.4805 North  Level FlightAware Approximate
Sun 04:16:00 PM 41.3569 -74.5229 314° West  Level FlightAware Approximate
Sun 04:17:00 PM 41.3868 -74.5648 314° West  Level FlightAware Approximate
Sun 04:18:00 PM 41.4139 -74.6096 305° West  Level FlightAware Approximate
Sun 04:19:00 PM 41.4389 -74.6569 305° West  Level FlightAware Approximate
Sun 04:20:00 PM 41.4638 -74.7042 305° West  Level FlightAware Approximate
Sun 04:21:00 PM 41.4888 -74.7516 305° West  Level FlightAware Approximate
Sun 04:22:00 PM 41.5137 -74.7990 305° West  Level FlightAware Approximate
Sun 04:23:00 PM 41.5386 -74.8464 305° West  Level FlightAware Approximate
Sun 04:24:00 PM 41.5634 -74.8938 305° West  Level FlightAware Approximate
Sun 04:24:53 PM 41.5675 -74.9272 301° West 128 147 9,900  Level New York Center
Sun 04:25:00 PM 41.5862 -74.9432 301° West  Level FlightAware Approximate
Sun 04:25:54 PM 41.5928 -74.9758 305° West 136 157 10,000  Level New York Center
Sun 04:26:00 PM 41.6086 -74.9928 301° West  Level FlightAware Approximate
Sun 04:26:55 PM 41.6161 -75.0244 303° West 152 175 10,000  Level New York Center
Sun 04:27:00 PM 41.6310 -75.0424 301° West  Level FlightAware Approximate
Sun 04:27:53 PM 41.6414 -75.0733 305° West 157 181 10,000  Level New York Center
Sun 04:28:00 PM 41.6533 -75.0921 301° West  Level FlightAware Approximate
Sun 04:28:54 PM 41.6644 -75.1247 301° West 157 181 10,000  Level New York Center
Sun 04:29:00 PM 41.6751 -75.1405 301° West  Level FlightAware Approximate
Sun 04:29:54 PM 41.6839 -75.1622 305° West 157 181 10,000  Level New York Center
Sun 04:30:55 PM 41.7111 -75.2167 304° West 162 186 10,000  Level New York Center
Sun 04:31:54 PM 41.7361 -75.2714 301° West 162 186 10,000  Level New York Center
Sun 04:32:55 PM 41.7614 -75.3175 306° West 162 186 10,000  Level New York Center
Sun 04:33:53 PM 41.7806 -75.3606 301° West 162 186 10,000  Level New York Center
Sun 04:34:55 PM 41.8078 -75.4125 305° West 162 186 10,000  Level New York Center
Sun 04:35:55 PM 41.8328 -75.4642 303° West 162 186 10,000  Level New York Center
Sun 04:36:56 PM 41.8600 -75.5136 306° West 167 192 10,000  Level New York Center
Sun 04:37:53 PM 41.8828 -75.5653 301° West 167 192 10,000  Level New York Center
Sun 04:38:54 PM 41.9019 -75.6083 301° West 167 192 10,000  Level New York Center
Sun 04:39:55 PM 41.9308 -75.6664 304° West 167 192 10,000  Level New York Center
Sun 04:40:56 PM 41.9539 -75.7128 304° West 167 192 10,000  Level New York Center
Sun 04:41:54 PM 41.9767 -75.7617 302° West 167 192 10,000  Level New York Center
Sun 04:42:55 PM 42.0036 -75.8169 303° West 162 186 10,000  Level New York Center
Sun 04:43:53 PM 42.0264 -75.8661 302° West 162 186 10,000  Level New York Center
Sun 04:44:53 PM 42.0492 -75.9181 301° West 162 186 10,000  Level New York Center
Sun 04:45:54 PM 42.0722 -75.9617 305° West 162 186 10,000  Level New York Center
Sun 04:46:55 PM 42.0969 -76.0139 303° West 162 186 10,000  Level New York Center
Sun 04:47:56 PM 42.1219 -76.0636 304° West 162 186 10,000  Level New York Center
Sun 04:48:54 PM 42.1464 -76.1186 301° West 162 186 10,000 -63 Level New York Center
Sun 04:49:31 PM 42.1644 -76.1564 303° West 179 206 9,900 -62 Descending Cleveland Center
Sun 04:50:31 PM 42.1850 -76.2000 302° West 172 198 9,900  Level Cleveland Center
Sun 04:51:31 PM 42.2056 -76.2489 300° West 158 182 9,900  Level Cleveland Center
Sun 04:52:31 PM 42.2331 -76.3117 301° West 172 198 9,900  Level Cleveland Center
Sun 04:53:31 PM 42.2514 -76.3581 298° West 167 192 9,900 50 Level Cleveland Center
Sun 04:54:31 PM 42.2764 -76.4153 301° West 167 192 10,000 50 Climbing Cleveland Center
Sun 04:55:31 PM 42.2992 -76.4672 301° West 167 192 10,000  Level Cleveland Center
Sun 04:56:31 PM 42.3219 -76.5192 301° West 162 186 10,000  Level Cleveland Center
Sun 04:57:31 PM 42.3447 -76.5739 299° West 162 186 10,000  Level Cleveland Center
Sun 04:58:31 PM 42.3672 -76.6258 300° West 157 181 10,000  Level Cleveland Center
Sun 04:59:31 PM 42.3900 -76.6778 301° West 157 181 10,000  Level Cleveland Center
Sun 05:00:31 PM 42.4125 -76.7328 299° West 157 181 10,000  Level Cleveland Center
Sun 05:01:22 PM 42.4328 -76.7794 300° West 159 183 10,000 -146 Level Cleveland Center
Sun 05:02:34 PM 42.4622 -76.8453 301° West 164 189 9,700 -361 Descending Cleveland Center
Sun 05:03:35 PM 42.4850 -76.9031 298° West 173 199 9,200 -462 Descending Cleveland Center
Sun 05:04:31 PM 42.5053 -76.9525 299° West 162 186 8,800 -466 Descending Cleveland Center
Sun 05:05:31 PM 42.5319 -77.0072 303° West 162 186 8,300 -526 Descending Cleveland Center
Sun 05:06:25 PM 42.5764 -77.0331 337° Northwest 178 205 7,800 -500 Descending Cleveland Center
Sun 05:07:31 PM 42.6233 -77.0614 336° Northwest 174 200 7,300 -397 Descending Cleveland Center
Sun 05:08:26 PM 42.6700 -77.0869 338° Northwest 180 207 7,000 -150 Descending Cleveland Center
Sun 05:09:31 PM 42.7125 -77.1131 336° Northwest 179 206 7,000 -48 Level Cleveland Center
Sun 05:10:31 PM 42.7528 -77.1389 335° Northwest 174 200 6,900 -244 Descending Cleveland Center
Sun 05:11:34 PM 42.8036 -77.1675 338° Northwest 173 199 6,500 -435 Descending Cleveland Center
Sun 05:12:35 PM 42.8483 -77.1961 335° Northwest 174 200 6,000 -470 Descending Cleveland Center
Sun 05:13:29 PM 42.8886 -77.2194 337° Northwest 172 198 5,600 -470 Descending Cleveland Center
Sun 05:14:30 PM 42.9331 -77.2481 335° Northwest 178 205 5,100 -493 Descending Cleveland Center
Sun 05:15:43 PM 42.9883 -77.2822 336° Northwest 179 206 4,500 -520 Descending Cleveland Center
Sun 05:16:37 PM 43.0308 -77.3083 336° Northwest 179 206 4,000 -495 Descending Cleveland Center
Sun 05:17:32 PM 43.0711 -77.3317 337° Northwest 180 207 3,600 -466 Descending Cleveland Center
Sun 05:18:33 PM 43.1178 -77.3606 336° Northwest 180 207 3,100 -298 Descending Cleveland Center
Sun 05:19:33 PM 43.1622 -77.3897 334° Northwest 167 192 3,000 -149 Descending Cleveland Center
Sun 05:20:34 PM 43.1964 -77.4219 325° Northwest 161 185 2,800 -313 Descending Cleveland Center
Sun 05:21:28 PM 43.1875 -77.4739 257° West 165 190 2,400 -209 Descending Cleveland Center
Sun 05:22:29 PM 43.1661 -77.5289 242° Southwest 164 189 2,400 -328 Level Cleveland Center
Sun 05:23:36 PM 43.1447 -77.5869 243° Southwest 156 180 1,700 -614 Descending Cleveland Center
Sun 05:24:36 PM 43.1311 -77.6303 247° West 122 140 1,100 -600 Descending Cleveland Center

Login

Don't have an account? Register now (free) for customized features, flight alerts, and more!